createdAt,value
2019-01-20T00:02:07.897Z,-19.52
2019-01-20T00:04:37.372Z,-19.49
2019-01-20T00:07:06.940Z,-19.48
2019-01-20T00:09:36.646Z,-19.40
2019-01-20T00:12:06.470Z,-19.28
2019-01-20T00:14:36.379Z,-19.09
2019-01-20T00:17:05.998Z,-18.92
2019-01-20T00:19:37.528Z,-18.87
2019-01-20T00:22:08.159Z,-18.83
2019-01-20T00:25:17.169Z,-18.79
2019-01-20T00:31:02.148Z,-18.68
2019-01-20T00:33:31.718Z,-18.66
2019-01-20T00:36:40.693Z,-18.66
2019-01-20T00:48:15.708Z,-19.06
2019-01-20T00:50:45.060Z,-19.22
2019-01-20T00:53:14.469Z,-19.28
2019-01-20T00:55:43.945Z,-19.37
2019-01-20T00:58:13.326Z,-19.49
2019-01-20T01:00:42.894Z,-19.60
2019-01-20T01:03:12.342Z,-19.75
2019-01-20T01:06:21.500Z,-19.82
2019-01-20T01:09:30.877Z,-19.96
2019-01-20T01:18:27.814Z,-20.44
2019-01-20T01:20:57.308Z,-20.57
2019-01-20T01:24:08.619Z,-20.55
2019-01-20T01:26:40.309Z,-20.57
2019-01-20T01:29:10.514Z,-20.60
2019-01-20T01:31:39.967Z,-20.64
2019-01-20T01:34:09.428Z,-20.76
2019-01-20T01:36:38.844Z,-20.78
2019-01-20T01:39:09.434Z,-20.81
2019-01-20T01:41:39.403Z,-20.91
2019-01-20T01:44:08.888Z,-20.86
2019-01-20T01:46:38.308Z,-20.85
2019-01-20T01:49:07.797Z,-20.73
2019-01-20T01:51:37.278Z,-20.69
2019-01-20T01:54:06.725Z,-20.51
2019-01-20T01:56:36.598Z,-20.42
2019-01-20T01:59:06.295Z,-20.34
2019-01-20T02:01:35.869Z,-20.30
2019-01-20T02:04:05.366Z,-20.18
2019-01-20T02:06:34.738Z,-19.96
2019-01-20T02:09:05.612Z,-19.79
2019-01-20T02:11:35.456Z,-19.70
2019-01-20T02:14:05.200Z,-19.66
2019-01-20T02:16:34.591Z,-19.60
2019-01-20T02:19:04.304Z,-19.56
2019-01-20T02:21:34.031Z,-19.47
2019-01-20T02:24:03.833Z,-19.39
2019-01-20T02:26:33.342Z,-19.33
2019-01-20T02:29:03.756Z,-19.26
2019-01-20T02:31:33.230Z,-19.10
2019-01-20T02:34:02.685Z,-19.04
2019-01-20T02:36:32.167Z,-18.97
2019-01-20T02:39:02.136Z,-18.93
2019-01-20T02:41:31.539Z,-18.83
2019-01-20T02:44:01.437Z,-18.86
2019-01-20T02:46:30.817Z,-18.88
2019-01-20T02:49:00.479Z,-18.85
2019-01-20T02:51:30.400Z,-18.83
2019-01-20T02:53:59.822Z,-18.77
2019-01-20T02:56:29.667Z,-18.75
2019-01-20T02:58:59.300Z,-19.63
2019-01-20T03:01:29.072Z,-18.70
2019-01-20T03:03:58.460Z,-18.68
2019-01-20T03:06:27.991Z,-18.61
2019-01-20T03:08:57.581Z,-18.57
2019-01-20T03:11:26.960Z,-18.59
2019-01-20T03:13:59.047Z,-18.55
2019-01-20T03:16:28.667Z,-18.56
2019-01-20T03:18:58.528Z,-18.52
2019-01-20T03:21:28.447Z,-18.49
2019-01-20T03:23:58.253Z,-18.44
2019-01-20T03:26:27.683Z,-18.42
2019-01-20T03:28:57.131Z,-18.44
2019-01-20T03:31:26.508Z,-18.42
2019-01-20T03:33:55.913Z,-18.39
2019-01-20T03:36:26.941Z,-18.35
2019-01-20T03:38:56.714Z,-18.32
2019-01-20T03:41:26.061Z,-18.31
2019-01-20T03:43:55.563Z,-18.27
2019-01-20T03:46:24.985Z,-18.24
2019-01-20T03:48:54.382Z,-18.23
2019-01-20T03:51:23.934Z,-18.19
2019-01-20T03:53:53.444Z,-18.20
2019-01-20T03:56:23.073Z,-18.19
2019-01-20T03:58:53.009Z,-18.15
2019-01-20T04:01:22.835Z,-18.14
2019-01-20T04:03:52.218Z,-18.15
2019-01-20T04:06:21.688Z,-18.14
2019-01-20T04:08:51.314Z,-18.11
2019-01-20T04:11:20.743Z,-18.07
2019-01-20T04:13:50.201Z,-18.04
2019-01-20T04:16:19.677Z,-18.00
2019-01-20T04:18:49.282Z,-17.94
2019-01-20T04:21:18.718Z,-17.91
2019-01-20T04:23:50.148Z,-17.94
2019-01-20T04:26:19.650Z,-17.94
2019-01-20T04:28:49.094Z,-17.96
2019-01-20T04:31:20.878Z,-17.97
2019-01-20T04:33:50.779Z,-17.99
2019-01-20T04:36:20.223Z,-18.02
2019-01-20T04:38:49.608Z,-18.04
2019-01-20T04:41:19.041Z,-18.06
2019-01-20T04:43:48.495Z,-18.06
2019-01-20T04:46:18.019Z,-18.09
2019-01-20T04:48:47.473Z,-18.13
2019-01-20T04:51:17.877Z,-18.15
2019-01-20T04:53:47.567Z,-18.13
2019-01-20T04:56:17.300Z,-18.11
2019-01-20T04:58:46.734Z,-18.08
2019-01-20T05:01:16.924Z,-18.06
2019-01-20T05:03:48.709Z,-18.06
2019-01-20T05:06:18.146Z,-18.05
2019-01-20T05:08:47.939Z,-18.04
2019-01-20T05:11:17.467Z,-18.00
2019-01-20T05:13:46.927Z,-18.02
2019-01-20T05:16:16.301Z,-18.00
2019-01-20T05:18:45.709Z,-18.02
2019-01-20T05:21:15.231Z,-18.05
2019-01-20T05:23:44.642Z,-18.05
2019-01-20T05:26:14.169Z,-18.02
2019-01-20T05:28:43.657Z,-18.00
2019-01-20T05:31:13.009Z,-17.98
2019-01-20T05:33:42.971Z,-17.97
2019-01-20T05:36:13.527Z,-17.96
2019-01-20T05:38:42.938Z,-17.96
2019-01-20T05:41:12.584Z,-17.99
2019-01-20T05:43:42.297Z,-18.02
2019-01-20T05:46:11.651Z,-18.05
2019-01-20T05:48:41.104Z,-18.10
2019-01-20T05:51:10.861Z,-18.09
2019-01-20T05:53:40.965Z,-18.10
2019-01-20T05:56:31.634Z,-18.08
2019-01-20T05:59:01.892Z,-18.09
2019-01-20T06:01:31.326Z,-18.11
2019-01-20T06:04:00.714Z,-18.09
2019-01-20T06:06:31.018Z,-18.09
2019-01-20T06:09:02.593Z,-18.08
2019-01-20T06:11:32.273Z,-18.09
2019-01-20T06:14:02.082Z,-18.08
2019-01-20T06:16:34.075Z,-18.07
2019-01-20T06:19:03.606Z,-18.05
2019-01-20T06:21:33.089Z,-18.04
2019-01-20T06:24:02.520Z,-18.03
2019-01-20T06:26:31.909Z,-18.04
2019-01-20T06:29:01.496Z,-18.01
2019-01-20T06:31:31.321Z,-17.96
2019-01-20T06:34:00.765Z,-17.97
2019-01-20T06:36:30.134Z,-17.94
2019-01-20T06:38:59.592Z,-17.95
2019-01-20T06:41:29.181Z,-17.93
2019-01-20T06:43:58.573Z,-17.94
2019-01-20T06:46:27.979Z,-17.95
2019-01-20T06:48:57.777Z,-17.93
2019-01-20T06:51:27.180Z,-17.91
2019-01-20T06:53:56.570Z,-17.91
2019-01-20T06:56:26.435Z,-17.90
2019-01-20T06:58:55.875Z,-17.91
2019-01-20T07:01:25.537Z,-17.95
2019-01-20T07:03:55.255Z,-17.89
2019-01-20T07:06:24.640Z,-17.85
2019-01-20T07:08:54.102Z,-17.82
2019-01-20T07:11:23.879Z,-17.76
2019-01-20T07:13:53.545Z,-17.76
2019-01-20T07:16:25.198Z,-17.77
2019-01-20T07:18:55.479Z,-17.77
2019-01-20T07:21:25.296Z,-17.75
2019-01-20T07:23:55.140Z,-17.76
2019-01-20T07:26:25.098Z,-17.75
2019-01-20T07:28:54.542Z,-17.66
2019-01-20T07:31:24.762Z,-17.53
2019-01-20T07:33:54.351Z,-17.40
2019-01-20T07:36:23.848Z,-17.30
2019-01-20T07:38:53.376Z,-17.12
2019-01-20T07:41:22.814Z,-16.93
2019-01-20T07:43:52.293Z,-16.76
2019-01-20T07:46:21.896Z,-16.64
2019-01-20T07:48:51.437Z,-16.52
2019-01-20T07:51:21.346Z,-16.41
2019-01-20T07:53:50.939Z,-16.32
2019-01-20T07:56:20.687Z,-16.27
2019-01-20T07:58:50.148Z,-16.26
2019-01-20T08:01:20.034Z,-16.29
2019-01-20T08:03:49.541Z,-16.31
2019-01-20T08:06:19.542Z,-16.26
2019-01-20T08:08:49.273Z,-16.20
2019-01-20T08:11:18.714Z,-16.13
2019-01-20T08:13:48.144Z,-16.08
2019-01-20T08:16:18.019Z,-16.06
2019-01-20T08:18:48.616Z,-16.09
2019-01-20T08:21:18.853Z,-16.11
2019-01-20T08:23:48.322Z,-16.16
2019-01-20T08:26:18.025Z,-16.21
2019-01-20T08:28:49.494Z,-16.26
2019-01-20T08:31:19.103Z,-16.31
2019-01-20T08:33:50.047Z,-16.35
2019-01-20T08:36:19.423Z,-16.39
2019-01-20T08:38:48.955Z,-16.43
2019-01-20T08:41:18.741Z,-16.47
2019-01-20T08:43:48.309Z,-16.48
2019-01-20T08:46:55.778Z,-16.48
2019-01-20T08:49:25.744Z,-16.49
2019-01-20T08:51:55.181Z,-16.50
2019-01-20T08:54:24.649Z,-16.51
2019-01-20T08:56:55.607Z,-16.51
2019-01-20T08:59:25.013Z,-16.47
2019-01-20T09:01:55.145Z,-16.45
2019-01-20T09:04:24.494Z,-16.47
2019-01-20T09:06:53.989Z,-16.47
2019-01-20T09:09:23.527Z,-16.44
2019-01-20T09:11:53.432Z,-16.42
2019-01-20T09:14:22.900Z,-16.42
2019-01-20T09:16:52.877Z,-16.38
2019-01-20T09:19:22.364Z,-16.35
2019-01-20T09:21:51.803Z,-16.32
2019-01-20T09:24:25.977Z,-16.26
2019-01-20T09:26:55.450Z,-16.20
2019-01-20T09:29:25.192Z,-16.17
2019-01-20T09:31:54.684Z,-16.12
2019-01-20T09:34:24.088Z,-16.09
2019-01-20T09:36:53.708Z,-16.11
2019-01-20T09:39:23.263Z,-16.90
2019-01-20T09:41:53.183Z,-16.06
2019-01-20T09:44:22.589Z,-16.05
2019-01-20T09:46:52.607Z,-16.03
2019-01-20T09:49:22.338Z,-15.99
2019-01-20T09:51:54.142Z,-15.96
2019-01-20T09:54:23.852Z,-15.94
2019-01-20T09:56:54.192Z,-15.91
2019-01-20T09:59:23.934Z,-15.86
2019-01-20T10:01:53.379Z,-15.77
2019-01-20T10:04:24.125Z,-15.73
2019-01-20T10:06:53.480Z,-15.71
2019-01-20T10:09:22.945Z,-15.72
2019-01-20T10:11:54.011Z,-15.67
2019-01-20T10:14:23.486Z,-15.65
2019-01-20T10:16:53.078Z,-15.59
2019-01-20T10:19:22.422Z,-15.57
2019-01-20T10:21:52.056Z,-15.54
2019-01-20T10:24:21.511Z,-15.52
2019-01-20T10:26:51.014Z,-15.47
2019-01-20T10:29:20.425Z,-15.45
2019-01-20T10:31:50.719Z,-15.38
2019-01-20T10:34:21.402Z,-15.36
2019-01-20T10:36:53.661Z,-15.32
2019-01-20T10:39:24.276Z,-15.30
2019-01-20T10:41:54.044Z,-15.27
2019-01-20T10:44:23.871Z,-15.24
2019-01-20T10:46:54.054Z,-15.21
2019-01-20T10:49:23.543Z,-15.15
2019-01-20T10:51:52.962Z,-15.11
2019-01-20T10:54:22.840Z,-15.08
2019-01-20T10:56:52.280Z,-15.07
2019-01-20T10:59:23.842Z,-15.02
2019-01-20T11:01:54.128Z,-15.01
2019-01-20T11:04:23.845Z,-14.98
2019-01-20T11:06:53.949Z,-14.94
2019-01-20T11:09:24.703Z,-14.90
2019-01-20T11:11:54.464Z,-14.87
2019-01-20T11:14:23.950Z,-14.83
2019-01-20T11:16:54.206Z,-14.77
2019-01-20T11:19:23.991Z,-14.74
2019-01-20T11:21:53.468Z,-14.73
2019-01-20T11:24:23.615Z,-14.70
2019-01-20T11:26:53.197Z,-14.64
2019-01-20T11:29:23.114Z,-14.60
2019-01-20T11:31:52.558Z,-14.54
2019-01-20T11:34:22.829Z,-14.53
2019-01-20T11:36:52.360Z,-14.48
2019-01-20T11:39:22.192Z,-14.44
2019-01-20T11:41:52.089Z,-14.40
2019-01-20T11:44:22.134Z,-14.37
2019-01-20T11:46:51.603Z,-14.36
2019-01-20T11:49:21.222Z,-14.27
2019-01-20T11:51:51.674Z,-14.20
2019-01-20T11:54:21.384Z,-14.14
2019-01-20T11:56:50.815Z,-14.89
2019-01-20T11:59:20.290Z,-14.08
2019-01-20T12:01:50.932Z,-14.03
2019-01-20T12:04:20.538Z,-13.96
2019-01-20T12:06:51.137Z,-13.93
2019-01-20T12:09:23.135Z,-13.86
2019-01-20T12:11:52.884Z,-13.74
2019-01-20T12:14:24.117Z,-13.91
2019-01-20T12:16:54.222Z,-13.39
2019-01-20T12:19:23.916Z,-13.14
2019-01-20T12:21:54.262Z,-12.87
2019-01-20T12:24:24.176Z,-12.55
2019-01-20T12:26:54.374Z,-12.24
2019-01-20T12:29:25.625Z,-12.00
2019-01-20T12:31:55.683Z,-11.91
2019-01-20T12:34:26.022Z,-11.87
2019-01-20T12:36:56.104Z,-11.85
2019-01-20T12:39:28.645Z,-11.88
2019-01-20T12:41:58.384Z,-11.90
2019-01-20T12:44:31.564Z,-11.98
2019-01-20T12:47:00.138Z,-12.03
2019-01-20T12:49:29.619Z,-12.05
2019-01-20T12:52:00.905Z,-12.07
2019-01-20T12:54:30.751Z,-12.18
2019-01-20T12:57:00.892Z,-12.27
2019-01-20T12:59:30.537Z,-12.30
2019-01-20T13:02:00.529Z,-12.41
2019-01-20T13:04:29.971Z,-12.55
2019-01-20T13:06:59.808Z,-12.74
2019-01-20T13:09:29.257Z,-12.89
2019-01-20T13:11:58.684Z,-13.04
2019-01-20T13:14:29.382Z,-13.15
2019-01-20T13:16:59.238Z,-13.26
2019-01-20T13:19:29.022Z,-13.39
2019-01-20T13:21:58.448Z,-13.51
2019-01-20T13:24:28.539Z,-13.60
2019-01-20T13:26:58.145Z,-13.72
2019-01-20T13:29:27.894Z,-13.78
2019-01-20T13:32:18.215Z,-13.87
2019-01-20T13:38:05.438Z,-14.02
2019-01-20T13:40:56.147Z,-14.12
2019-01-20T13:43:26.990Z,-14.18
2019-01-20T13:45:56.751Z,-14.23
2019-01-20T13:49:07.808Z,-14.27
2019-01-20T13:51:58.063Z,-14.29
2019-01-20T13:57:17.514Z,-14.37
2019-01-20T13:59:48.670Z,-14.38
2019-01-20T14:02:57.504Z,-14.39
2019-01-20T14:06:06.935Z,-14.46
2019-01-20T14:08:55.740Z,-14.54
2019-01-20T14:11:25.801Z,-14.60
2019-01-20T14:13:55.365Z,-14.62
2019-01-20T14:17:05.241Z,-14.65
2019-01-20T14:19:35.326Z,-14.68
2019-01-20T14:22:44.456Z,-14.68
2019-01-20T14:25:33.060Z,-14.65
2019-01-20T14:28:43.870Z,-14.60
2019-01-20T14:37:14.638Z,-14.70
2019-01-20T14:46:14.379Z,-14.77
2019-01-20T14:57:29.406Z,-14.87
2019-01-20T14:59:59.200Z,-14.89
2019-01-20T15:02:49.376Z,-14.94
2019-01-20T15:05:19.060Z,-15.00
2019-01-20T15:07:52.225Z,-15.07
2019-01-20T15:10:21.963Z,-15.06
2019-01-20T15:12:51.366Z,-15.06
2019-01-20T15:15:24.041Z,-15.06
2019-01-20T15:17:53.699Z,-15.12
2019-01-20T15:20:23.333Z,-15.07
2019-01-20T15:22:55.188Z,-15.06
2019-01-20T15:26:04.334Z,-15.14
2019-01-20T15:28:34.006Z,-15.19
2019-01-20T15:31:03.798Z,-15.24
2019-01-20T15:33:33.748Z,-15.29
2019-01-20T15:39:13.326Z,-15.32
2019-01-20T15:41:43.107Z,-15.34
2019-01-20T15:44:12.869Z,-15.31
2019-01-20T15:46:45.717Z,-15.33
2019-01-20T15:49:15.801Z,-15.38
2019-01-20T15:51:45.730Z,-15.41
2019-01-20T15:54:15.318Z,-15.45
2019-01-20T15:56:47.639Z,-15.46
2019-01-20T15:59:56.455Z,-15.46
2019-01-20T16:05:08.273Z,-15.49
2019-01-20T16:07:40.225Z,-15.49
2019-01-20T16:10:11.295Z,-15.51
2019-01-20T16:15:28.175Z,-15.54
2019-01-20T16:18:07.598Z,-15.55
2019-01-20T16:26:01.501Z,-15.55
2019-01-20T16:31:59.765Z,-15.63
2019-01-20T16:37:43.781Z,-15.66
2019-01-20T16:40:53.885Z,-15.71
2019-01-20T16:43:24.834Z,-15.73
2019-01-20T16:49:08.814Z,-15.78
2019-01-20T16:51:38.485Z,-15.78
2019-01-20T16:57:33.492Z,-15.80
2019-01-20T17:11:49.016Z,-15.80
2019-01-20T17:14:58.188Z,-15.82
2019-01-20T17:17:28.550Z,-15.83
2019-01-20T17:25:42.536Z,-15.90
2019-01-20T17:28:12.214Z,-15.90
2019-01-20T17:30:42.361Z,-15.94
2019-01-20T17:33:52.430Z,-15.95
2019-01-20T17:36:23.246Z,-15.93
2019-01-20T17:41:49.463Z,-15.95
2019-01-20T17:50:19.336Z,-16.96
2019-01-20T17:52:49.122Z,-16.08
2019-01-20T17:55:19.022Z,-16.09
2019-01-20T17:57:48.985Z,-16.13
2019-01-20T18:00:21.566Z,-16.15
2019-01-20T18:02:51.270Z,-16.19
2019-01-20T18:05:23.402Z,-17.09
2019-01-20T18:07:53.534Z,-16.22
2019-01-20T18:10:47.539Z,-16.23
2019-01-20T18:13:17.535Z,-16.21
2019-01-20T18:15:54.101Z,-16.23
2019-01-20T18:18:19.065Z,-16.20
2019-01-20T18:20:48.979Z,-16.17
2019-01-20T18:23:18.918Z,-16.11
2019-01-20T18:25:49.039Z,-16.11
2019-01-20T18:28:18.797Z,-16.12
2019-01-20T18:30:48.772Z,-16.10
2019-01-20T18:33:18.643Z,-16.12
2019-01-20T18:35:51.264Z,-16.08
2019-01-20T18:38:21.111Z,-16.08
2019-01-20T18:40:50.887Z,-16.08
2019-01-20T18:43:20.760Z,-16.10
2019-01-20T18:45:52.240Z,-16.11
2019-01-20T18:48:22.386Z,-16.11
2019-01-20T18:50:56.323Z,-16.10
2019-01-20T18:54:08.277Z,-16.11
2019-01-20T18:56:38.930Z,-16.12
2019-01-20T18:59:09.683Z,-16.10
2019-01-20T19:02:26.158Z,-16.11
2019-01-20T19:07:55.525Z,-16.13
2019-01-20T19:10:24.182Z,-16.15
2019-01-20T19:12:54.179Z,-16.16
2019-01-20T19:15:24.361Z,-16.18
2019-01-20T19:21:09.090Z,-16.20
2019-01-20T19:26:41.087Z,-16.22
2019-01-20T19:29:49.989Z,-16.23
2019-01-20T19:32:59.017Z,-16.24
2019-01-20T19:35:48.343Z,-16.25
2019-01-20T19:38:57.714Z,-16.28
2019-01-20T19:44:45.134Z,-16.30
2019-01-20T19:47:54.549Z,-16.32
2019-01-20T19:50:26.077Z,-16.35
2019-01-20T19:56:12.567Z,-16.37
2019-01-20T20:02:11.617Z,-16.40
2019-01-20T20:04:41.789Z,-16.44
2019-01-20T20:07:32.593Z,-16.46
2019-01-20T20:10:02.442Z,-16.46
2019-01-20T20:13:11.692Z,-16.48
2019-01-20T20:21:32.817Z,-16.55
2019-01-20T20:26:55.795Z,-16.55
2019-01-20T20:32:22.599Z,-16.57
2019-01-20T20:37:46.905Z,-16.58
2019-01-20T20:43:19.263Z,-16.60
2019-01-20T20:45:49.849Z,-16.61
2019-01-20T20:48:19.913Z,-16.63
2019-01-20T20:51:29.131Z,-16.63
2019-01-20T20:57:17.497Z,-16.64
2019-01-20T21:03:04.852Z,-16.67
2019-01-20T21:05:53.745Z,-16.69
2019-01-20T21:11:19.497Z,-16.67
2019-01-20T21:22:52.918Z,-16.73
2019-01-20T21:28:17.306Z,-16.76
2019-01-20T21:31:26.584Z,-16.72
2019-01-20T21:34:35.665Z,-16.74
2019-01-20T21:40:31.222Z,-16.71
2019-01-20T21:46:16.624Z,-16.78
2019-01-20T21:49:26.067Z,-16.79
2019-01-20T21:51:55.521Z,-16.80
2019-01-20T21:54:25.544Z,-16.80
2019-01-20T21:57:34.467Z,-16.83
2019-01-20T22:05:35.536Z,-16.89
2019-01-20T22:11:08.032Z,-16.86
2019-01-20T22:13:37.837Z,-16.84
2019-01-20T22:16:52.765Z,-16.83
2019-01-20T22:34:30.045Z,-16.66
2019-01-20T22:37:01.886Z,-16.68
2019-01-20T22:39:31.409Z,-16.68
2019-01-20T22:42:21.625Z,-16.67
2019-01-20T22:47:43.460Z,-16.69
2019-01-20T22:52:53.537Z,-17.54
2019-01-20T22:56:02.600Z,-16.75
2019-01-20T22:58:32.106Z,-16.78
2019-01-20T23:01:46.197Z,-16.77
2019-01-20T23:04:16.663Z,-16.82
2019-01-20T23:06:49.740Z,-16.81
2019-01-20T23:09:19.883Z,-16.82
2019-01-20T23:12:28.928Z,-16.80
2019-01-20T23:14:58.313Z,-16.81
2019-01-20T23:32:21.948Z,-16.81
2019-01-20T23:38:07.527Z,-16.82
2019-01-20T23:41:16.865Z,-16.80
2019-01-20T23:44:25.931Z,-16.81
2019-01-20T23:49:57.125Z,-16.86
2019-01-20T23:53:05.913Z,-17.92
2019-01-20T23:56:16.369Z,-16.89
